sensor_id;sensor_type;location;lat;lon;timestamp;P1;durP1;ratioP1;P2;durP2;ratioP2
25639;SDS011;13497;48.322;16.204;2023-08-24T00:01:30;3.67;;;2.95;;
25639;SDS011;13497;48.322;16.204;2023-08-24T00:03:55;3.00;;;2.70;;
25639;SDS011;13497;48.322;16.204;2023-08-24T00:06:21;3.42;;;3.13;;
25639;SDS011;13497;48.322;16.204;2023-08-24T00:08:47;4.13;;;3.30;;
25639;SDS011;13497;48.322;16.204;2023-08-24T00:11:12;4.47;;;3.28;;
25639;SDS011;13497;48.322;16.204;2023-08-24T00:13:42;5.22;;;3.10;;
25639;SDS011;13497;48.322;16.204;2023-08-24T00:16:13;4.97;;;3.20;;
25639;SDS011;13497;48.322;16.204;2023-08-24T00:18:40;6.38;;;3.17;;
25639;SDS011;13497;48.322;16.204;2023-08-24T00:21:06;3.30;;;3.00;;
25639;SDS011;13497;48.322;16.204;2023-08-24T00:23:32;3.58;;;3.22;;
25639;SDS011;13497;48.322;16.204;2023-08-24T00:25:58;3.42;;;3.13;;
25639;SDS011;13497;48.322;16.204;2023-08-24T00:28:25;6.50;;;3.13;;
25639;SDS011;13497;48.322;16.204;2023-08-24T00:30:51;4.60;;;3.30;;
25639;SDS011;13497;48.322;16.204;2023-08-24T00:33:17;3.90;;;3.17;;
25639;SDS011;13497;48.322;16.204;2023-08-24T00:35:42;3.42;;;3.13;;
25639;SDS011;13497;48.322;16.204;2023-08-24T00:38:08;3.78;;;3.20;;
25639;SDS011;13497;48.322;16.204;2023-08-24T00:40:34;4.38;;;3.53;;
25639;SDS011;13497;48.322;16.204;2023-08-24T00:42:59;4.00;;;3.45;;
25639;SDS011;13497;48.322;16.204;2023-08-24T00:47:51;4.72;;;3.58;;
25639;SDS011;13497;48.322;16.204;2023-08-24T00:50:17;3.25;;;2.95;;
25639;SDS011;13497;48.322;16.204;2023-08-24T00:52:43;3.47;;;3.17;;
25639;SDS011;13497;48.322;16.204;2023-08-24T00:55:09;3.22;;;2.90;;
25639;SDS011;13497;48.322;16.204;2023-08-24T00:57:36;4.05;;;2.92;;
25639;SDS011;13497;48.322;16.204;2023-08-24T01:00:03;4.13;;;2.97;;
25639;SDS011;13497;48.322;16.204;2023-08-24T01:02:31;3.42;;;3.13;;
25639;SDS011;13497;48.322;16.204;2023-08-24T01:07:23;4.87;;;3.73;;
25639;SDS011;13497;48.322;16.204;2023-08-24T01:09:49;4.05;;;3.53;;
25639;SDS011;13497;48.322;16.204;2023-08-24T01:17:30;3.65;;;3.15;;
25639;SDS011;13497;48.322;16.204;2023-08-24T01:19:57;3.28;;;2.97;;
25639;SDS011;13497;48.322;16.204;2023-08-24T01:25:08;3.33;;;3.00;;
25639;SDS011;13497;48.322;16.204;2023-08-24T01:27:41;3.50;;;2.90;;
25639;SDS011;13497;48.322;16.204;2023-08-24T01:30:08;6.22;;;3.55;;
25639;SDS011;13497;48.322;16.204;2023-08-24T01:32:34;3.28;;;2.97;;
25639;SDS011;13497;48.322;16.204;2023-08-24T01:35:05;3.33;;;3.03;;
25639;SDS011;13497;48.322;16.204;2023-08-24T01:37:32;3.80;;;3.50;;
25639;SDS011;13497;48.322;16.204;2023-08-24T01:42:38;3.55;;;3.25;;
25639;SDS011;13497;48.322;16.204;2023-08-24T01:45:12;4.57;;;3.30;;
25639;SDS011;13497;48.322;16.204;2023-08-24T01:47:38;3.28;;;2.97;;
25639;SDS011;13497;48.322;16.204;2023-08-24T01:50:06;4.55;;;3.20;;
25639;SDS011;13497;48.322;16.204;2023-08-24T01:54:59;3.60;;;3.30;;
25639;SDS011;13497;48.322;16.204;2023-08-24T01:57:24;3.63;;;3.17;;
25639;SDS011;13497;48.322;16.204;2023-08-24T01:59:50;3.72;;;3.42;;
25639;SDS011;13497;48.322;16.204;2023-08-24T02:02:16;3.38;;;2.97;;
25639;SDS011;13497;48.322;16.204;2023-08-24T02:04:42;4.22;;;3.83;;
25639;SDS011;13497;48.322;16.204;2023-08-24T02:07:08;3.65;;;3.35;;
25639;SDS011;13497;48.322;16.204;2023-08-24T02:09:33;5.40;;;3.20;;
25639;SDS011;13497;48.322;16.204;2023-08-24T02:11:59;3.20;;;2.92;;
25639;SDS011;13497;48.322;16.204;2023-08-24T02:14:25;4.05;;;3.20;;
25639;SDS011;13497;48.322;16.204;2023-08-24T02:16:50;3.78;;;3.40;;
25639;SDS011;13497;48.322;16.204;2023-08-24T02:19:16;4.93;;;3.08;;
25639;SDS011;13497;48.322;16.204;2023-08-24T02:21:41;3.85;;;3.45;;
25639;SDS011;13497;48.322;16.204;2023-08-24T02:24:07;2.95;;;2.75;;
25639;SDS011;13497;48.322;16.204;2023-08-24T02:26:33;3.53;;;3.22;;
25639;SDS011;13497;48.322;16.204;2023-08-24T02:28:58;3.85;;;3.40;;
25639;SDS011;13497;48.322;16.204;2023-08-24T02:31:25;3.97;;;3.65;;
25639;SDS011;13497;48.322;16.204;2023-08-24T02:33:50;3.35;;;3.05;;
25639;SDS011;13497;48.322;16.204;2023-08-24T02:36:16;5.65;;;3.30;;
25639;SDS011;13497;48.322;16.204;2023-08-24T02:38:42;3.90;;;3.33;;
25639;SDS011;13497;48.322;16.204;2023-08-24T02:41:07;3.88;;;3.58;;
25639;SDS011;13497;48.322;16.204;2023-08-24T02:43:34;3.50;;;3.17;;
25639;SDS011;13497;48.322;16.204;2023-08-24T02:46:03;3.78;;;3.38;;
25639;SDS011;13497;48.322;16.204;2023-08-24T02:48:30;3.58;;;3.28;;
25639;SDS011;13497;48.322;16.204;2023-08-24T02:50:59;3.55;;;3.22;;
25639;SDS011;13497;48.322;16.204;2023-08-24T02:53:25;4.78;;;3.47;;
25639;SDS011;13497;48.322;16.204;2023-08-24T02:55:52;5.43;;;3.53;;
25639;SDS011;13497;48.322;16.204;2023-08-24T02:58:18;3.60;;;3.30;;
25639;SDS011;13497;48.322;16.204;2023-08-24T03:03:11;5.40;;;3.53;;
25639;SDS011;13497;48.322;16.204;2023-08-24T03:05:40;5.05;;;3.65;;
25639;SDS011;13497;48.322;16.204;2023-08-24T03:10:35;3.60;;;3.30;;
25639;SDS011;13497;48.322;16.204;2023-08-24T03:13:01;4.43;;;3.60;;
25639;SDS011;13497;48.322;16.204;2023-08-24T03:15:29;3.90;;;3.55;;
25639;SDS011;13497;48.322;16.204;2023-08-24T03:17:56;4.40;;;3.45;;
25639;SDS011;13497;48.322;16.204;2023-08-24T03:20:21;3.58;;;3.20;;
25639;SDS011;13497;48.322;16.204;2023-08-24T03:22:47;3.92;;;3.63;;
25639;SDS011;13497;48.322;16.204;2023-08-24T03:25:13;4.60;;;3.67;;
25639;SDS011;13497;48.322;16.204;2023-08-24T03:27:39;3.70;;;3.35;;
25639;SDS011;13497;48.322;16.204;2023-08-24T03:30:04;4.00;;;3.23;;
25639;SDS011;13497;48.322;16.204;2023-08-24T03:32:31;5.38;;;3.47;;
25639;SDS011;13497;48.322;16.204;2023-08-24T03:34:59;3.45;;;3.15;;
25639;SDS011;13497;48.322;16.204;2023-08-24T03:37:27;4.18;;;3.72;;
25639;SDS011;13497;48.322;16.204;2023-08-24T03:39:53;4.10;;;3.60;;
25639;SDS011;13497;48.322;16.204;2023-08-24T03:42:18;4.85;;;3.53;;
25639;SDS011;13497;48.322;16.204;2023-08-24T03:44:44;4.07;;;3.53;;
25639;SDS011;13497;48.322;16.204;2023-08-24T03:47:09;4.28;;;3.75;;
25639;SDS011;13497;48.322;16.204;2023-08-24T03:49:35;3.97;;;3.35;;
25639;SDS011;13497;48.322;16.204;2023-08-24T03:52:00;4.50;;;3.38;;
25639;SDS011;13497;48.322;16.204;2023-08-24T03:54:27;5.38;;;4.00;;
25639;SDS011;13497;48.322;16.204;2023-08-24T03:56:53;8.20;;;3.83;;
25639;SDS011;13497;48.322;16.204;2023-08-24T03:59:19;3.25;;;2.92;;
25639;SDS011;13497;48.322;16.204;2023-08-24T04:01:45;4.32;;;3.78;;
25639;SDS011;13497;48.322;16.204;2023-08-24T04:04:11;3.55;;;3.25;;
25639;SDS011;13497;48.322;16.204;2023-08-24T04:06:36;3.80;;;3.15;;
25639;SDS011;13497;48.322;16.204;2023-08-24T04:09:02;4.50;;;3.60;;
25639;SDS011;13497;48.322;16.204;2023-08-24T04:13:54;4.72;;;3.75;;
25639;SDS011;13497;48.322;16.204;2023-08-24T04:16:20;4.57;;;3.67;;
25639;SDS011;13497;48.322;16.204;2023-08-24T04:18:45;5.13;;;3.40;;
25639;SDS011;13497;48.322;16.204;2023-08-24T04:21:11;3.53;;;3.23;;
25639;SDS011;13497;48.322;16.204;2023-08-24T04:23:37;6.82;;;3.53;;
25639;SDS011;13497;48.322;16.204;2023-08-24T04:26:02;4.35;;;3.63;;
25639;SDS011;13497;48.322;16.204;2023-08-24T04:28:30;3.80;;;3.50;;
25639;SDS011;13497;48.322;16.204;2023-08-24T04:30:56;5.72;;;3.72;;
25639;SDS011;13497;48.322;16.204;2023-08-24T04:35:48;8.32;;;3.97;;
25639;SDS011;13497;48.322;16.204;2023-08-24T04:38:15;4.68;;;3.60;;
25639;SDS011;13497;48.322;16.204;2023-08-24T04:43:11;3.60;;;3.30;;
25639;SDS011;13497;48.322;16.204;2023-08-24T04:45:36;3.63;;;3.33;;
25639;SDS011;13497;48.322;16.204;2023-08-24T04:48:02;4.05;;;3.65;;
25639;SDS011;13497;48.322;16.204;2023-08-24T04:50:28;4.75;;;3.42;;
25639;SDS011;13497;48.322;16.204;2023-08-24T04:52:53;4.15;;;3.30;;
25639;SDS011;13497;48.322;16.204;2023-08-24T04:55:19;4.53;;;3.80;;
25639;SDS011;13497;48.322;16.204;2023-08-24T04:57:45;5.30;;;3.63;;
25639;SDS011;13497;48.322;16.204;2023-08-24T05:00:11;5.45;;;3.33;;
25639;SDS011;13497;48.322;16.204;2023-08-24T05:02:41;4.00;;;3.50;;
25639;SDS011;13497;48.322;16.204;2023-08-24T05:07:35;4.88;;;3.15;;
25639;SDS011;13497;48.322;16.204;2023-08-24T05:10:02;3.50;;;3.20;;
25639;SDS011;13497;48.322;16.204;2023-08-24T05:12:28;3.95;;;3.00;;
25639;SDS011;13497;48.322;16.204;2023-08-24T05:14:54;6.95;;;3.65;;
25639;SDS011;13497;48.322;16.204;2023-08-24T05:17:20;4.30;;;3.63;;
25639;SDS011;13497;48.322;16.204;2023-08-24T05:19:53;4.40;;;4.00;;
25639;SDS011;13497;48.322;16.204;2023-08-24T05:22:19;3.83;;;3.20;;
25639;SDS011;13497;48.322;16.204;2023-08-24T05:24:46;5.15;;;4.10;;
25639;SDS011;13497;48.322;16.204;2023-08-24T05:27:11;6.00;;;3.60;;
25639;SDS011;13497;48.322;16.204;2023-08-24T05:32:02;4.10;;;3.80;;
25639;SDS011;13497;48.322;16.204;2023-08-24T05:36:54;4.25;;;3.80;;
25639;SDS011;13497;48.322;16.204;2023-08-24T05:41:51;5.60;;;3.63;;
25639;SDS011;13497;48.322;16.204;2023-08-24T05:44:17;5.97;;;4.22;;
25639;SDS011;13497;48.322;16.204;2023-08-24T05:46:44;4.18;;;3.78;;
25639;SDS011;13497;48.322;16.204;2023-08-24T05:49:11;4.40;;;4.00;;
25639;SDS011;13497;48.322;16.204;2023-08-24T05:54:02;4.97;;;3.20;;
25639;SDS011;13497;48.322;16.204;2023-08-24T05:58:53;4.90;;;3.70;;
25639;SDS011;13497;48.322;16.204;2023-08-24T06:01:19;4.53;;;3.42;;
25639;SDS011;13497;48.322;16.204;2023-08-24T06:06:11;3.60;;;3.30;;
25639;SDS011;13497;48.322;16.204;2023-08-24T06:08:36;4.10;;;3.78;;
25639;SDS011;13497;48.322;16.204;2023-08-24T06:11:02;3.45;;;3.13;;
25639;SDS011;13497;48.322;16.204;2023-08-24T06:13:28;4.15;;;3.40;;
25639;SDS011;13497;48.322;16.204;2023-08-24T06:15:53;3.90;;;3.47;;
25639;SDS011;13497;48.322;16.204;2023-08-24T06:18:19;4.57;;;4.00;;
25639;SDS011;13497;48.322;16.204;2023-08-24T06:23:11;4.32;;;3.70;;
25639;SDS011;13497;48.322;16.204;2023-08-24T06:25:39;4.32;;;3.58;;
25639;SDS011;13497;48.322;16.204;2023-08-24T06:28:05;6.00;;;4.07;;
25639;SDS011;13497;48.322;16.204;2023-08-24T06:30:31;4.60;;;4.13;;
25639;SDS011;13497;48.322;16.204;2023-08-24T06:33:02;7.35;;;4.50;;
25639;SDS011;13497;48.322;16.204;2023-08-24T06:35:28;5.20;;;4.10;;
25639;SDS011;13497;48.322;16.204;2023-08-24T06:37:54;6.07;;;4.80;;
25639;SDS011;13497;48.322;16.204;2023-08-24T06:40:19;5.68;;;4.30;;
25639;SDS011;13497;48.322;16.204;2023-08-24T06:42:45;8.80;;;4.40;;
25639;SDS011;13497;48.322;16.204;2023-08-24T06:45:11;5.38;;;4.10;;
25639;SDS011;13497;48.322;16.204;2023-08-24T06:47:37;7.22;;;4.70;;
25639;SDS011;13497;48.322;16.204;2023-08-24T06:50:04;6.80;;;5.18;;
25639;SDS011;13497;48.322;16.204;2023-08-24T06:54:55;6.45;;;5.10;;
25639;SDS011;13497;48.322;16.204;2023-08-24T06:57:21;5.50;;;4.95;;
25639;SDS011;13497;48.322;16.204;2023-08-24T06:59:47;5.20;;;4.45;;
25639;SDS011;13497;48.322;16.204;2023-08-24T07:02:13;5.45;;;4.80;;
25639;SDS011;13497;48.322;16.204;2023-08-24T07:04:39;10.63;;;4.78;;
25639;SDS011;13497;48.322;16.204;2023-08-24T07:07:05;5.78;;;4.60;;
25639;SDS011;13497;48.322;16.204;2023-08-24T07:11:57;4.88;;;4.40;;
25639;SDS011;13497;48.322;16.204;2023-08-24T07:14:23;5.40;;;4.55;;
25639;SDS011;13497;48.322;16.204;2023-08-24T07:16:48;6.25;;;4.80;;
25639;SDS011;13497;48.322;16.204;2023-08-24T07:19:14;5.85;;;4.70;;
25639;SDS011;13497;48.322;16.204;2023-08-24T07:21:40;6.72;;;4.35;;
25639;SDS011;13497;48.322;16.204;2023-08-24T07:24:05;5.20;;;4.70;;
25639;SDS011;13497;48.322;16.204;2023-08-24T07:26:31;5.75;;;4.55;;
25639;SDS011;13497;48.322;16.204;2023-08-24T07:28:58;5.15;;;4.35;;
25639;SDS011;13497;48.322;16.204;2023-08-24T07:31:24;5.63;;;4.78;;
25639;SDS011;13497;48.322;16.204;2023-08-24T07:33:50;4.95;;;4.53;;
25639;SDS011;13497;48.322;16.204;2023-08-24T07:36:16;7.22;;;4.82;;
25639;SDS011;13497;48.322;16.204;2023-08-24T07:38:44;5.10;;;4.57;;
25639;SDS011;13497;48.322;16.204;2023-08-24T07:41:11;10.98;;;5.10;;
25639;SDS011;13497;48.322;16.204;2023-08-24T07:43:37;7.28;;;5.13;;
25639;SDS011;13497;48.322;16.204;2023-08-24T07:46:03;5.30;;;4.75;;
25639;SDS011;13497;48.322;16.204;2023-08-24T07:48:29;7.18;;;5.35;;
25639;SDS011;13497;48.322;16.204;2023-08-24T07:50:55;6.32;;;5.07;;
25639;SDS011;13497;48.322;16.204;2023-08-24T07:53:21;6.85;;;5.43;;
25639;SDS011;13497;48.322;16.204;2023-08-24T07:55:47;7.38;;;4.50;;
25639;SDS011;13497;48.322;16.204;2023-08-24T07:58:13;9.52;;;4.78;;
25639;SDS011;13497;48.322;16.204;2023-08-24T08:00:38;5.13;;;4.63;;
25639;SDS011;13497;48.322;16.204;2023-08-24T08:03:04;5.75;;;4.30;;
25639;SDS011;13497;48.322;16.204;2023-08-24T08:05:30;4.72;;;4.20;;
25639;SDS011;13497;48.322;16.204;2023-08-24T08:07:55;5.55;;;4.05;;
25639;SDS011;13497;48.322;16.204;2023-08-24T08:10:21;5.43;;;4.50;;
25639;SDS011;13497;48.322;16.204;2023-08-24T08:12:47;5.15;;;4.53;;
25639;SDS011;13497;48.322;16.204;2023-08-24T08:15:13;6.78;;;4.97;;
25639;SDS011;13497;48.322;16.204;2023-08-24T08:17:38;6.30;;;4.55;;
25639;SDS011;13497;48.322;16.204;2023-08-24T08:20:04;7.38;;;4.85;;
25639;SDS011;13497;48.322;16.204;2023-08-24T08:22:30;5.38;;;4.50;;
25639;SDS011;13497;48.322;16.204;2023-08-24T08:25:00;6.70;;;4.78;;
25639;SDS011;13497;48.322;16.204;2023-08-24T08:27:26;5.07;;;4.57;;
25639;SDS011;13497;48.322;16.204;2023-08-24T08:29:52;5.38;;;4.35;;
25639;SDS011;13497;48.322;16.204;2023-08-24T08:32:18;6.75;;;4.95;;
25639;SDS011;13497;48.322;16.204;2023-08-24T08:34:43;5.63;;;4.57;;
25639;SDS011;13497;48.322;16.204;2023-08-24T08:39:34;5.63;;;4.25;;
25639;SDS011;13497;48.322;16.204;2023-08-24T08:42:00;6.70;;;4.47;;
25639;SDS011;13497;48.322;16.204;2023-08-24T08:44:29;5.45;;;4.28;;
25639;SDS011;13497;48.322;16.204;2023-08-24T08:46:56;5.13;;;4.35;;
25639;SDS011;13497;48.322;16.204;2023-08-24T08:49:22;4.50;;;3.92;;
25639;SDS011;13497;48.322;16.204;2023-08-24T08:54:14;6.05;;;4.28;;
25639;SDS011;13497;48.322;16.204;2023-08-24T08:59:07;11.50;;;4.55;;
25639;SDS011;13497;48.322;16.204;2023-08-24T09:01:36;4.22;;;3.92;;
25639;SDS011;13497;48.322;16.204;2023-08-24T09:04:03;7.63;;;4.30;;
25639;SDS011;13497;48.322;16.204;2023-08-24T09:06:31;4.72;;;4.22;;
25639;SDS011;13497;48.322;16.204;2023-08-24T09:08:57;4.35;;;3.95;;
25639;SDS011;13497;48.322;16.204;2023-08-24T09:13:49;5.03;;;3.90;;
25639;SDS011;13497;48.322;16.204;2023-08-24T09:18:44;4.93;;;4.38;;
25639;SDS011;13497;48.322;16.204;2023-08-24T09:21:12;4.50;;;4.10;;
25639;SDS011;13497;48.322;16.204;2023-08-24T09:23:52;3.92;;;3.63;;
25639;SDS011;13497;48.322;16.204;2023-08-24T09:26:34;4.35;;;3.63;;
25639;SDS011;13497;48.322;16.204;2023-08-24T09:29:11;5.25;;;3.85;;
25639;SDS011;13497;48.322;16.204;2023-08-24T09:31:38;4.65;;;4.07;;
25639;SDS011;13497;48.322;16.204;2023-08-24T09:34:05;7.05;;;3.85;;
25639;SDS011;13497;48.322;16.204;2023-08-24T09:36:34;4.15;;;3.65;;
25639;SDS011;13497;48.322;16.204;2023-08-24T09:39:01;4.00;;;3.50;;
25639;SDS011;13497;48.322;16.204;2023-08-24T09:41:46;3.97;;;3.67;;
25639;SDS011;13497;48.322;16.204;2023-08-24T09:44:14;4.07;;;3.50;;
25639;SDS011;13497;48.322;16.204;2023-08-24T09:49:06;4.38;;;3.85;;
25639;SDS011;13497;48.322;16.204;2023-08-24T09:51:36;4.68;;;3.90;;
25639;SDS011;13497;48.322;16.204;2023-08-24T09:54:04;5.18;;;4.07;;
25639;SDS011;13497;48.322;16.204;2023-08-24T09:56:33;4.70;;;3.60;;
25639;SDS011;13497;48.322;16.204;2023-08-24T09:59:04;4.20;;;3.80;;
25639;SDS011;13497;48.322;16.204;2023-08-24T10:01:36;4.75;;;3.53;;
25639;SDS011;13497;48.322;16.204;2023-08-24T10:04:03;5.30;;;3.60;;
25639;SDS011;13497;48.322;16.204;2023-08-24T10:06:30;4.13;;;3.78;;
25639;SDS011;13497;48.322;16.204;2023-08-24T10:09:00;4.90;;;3.90;;
25639;SDS011;13497;48.322;16.204;2023-08-24T10:11:32;4.95;;;3.60;;
25639;SDS011;13497;48.322;16.204;2023-08-24T10:19:36;4.30;;;3.90;;
25639;SDS011;13497;48.322;16.204;2023-08-24T10:22:02;4.65;;;3.60;;
25639;SDS011;13497;48.322;16.204;2023-08-24T10:24:28;5.68;;;4.00;;
25639;SDS011;13497;48.322;16.204;2023-08-24T10:26:56;4.63;;;3.67;;
25639;SDS011;13497;48.322;16.204;2023-08-24T10:29:22;5.13;;;3.97;;
25639;SDS011;13497;48.322;16.204;2023-08-24T10:31:49;4.10;;;3.70;;
25639;SDS011;13497;48.322;16.204;2023-08-24T10:34:15;3.67;;;3.38;;
25639;SDS011;13497;48.322;16.204;2023-08-24T10:36:41;4.20;;;3.80;;
25639;SDS011;13497;48.322;16.204;2023-08-24T10:39:07;5.82;;;3.88;;
25639;SDS011;13497;48.322;16.204;2023-08-24T10:41:46;4.22;;;3.67;;
25639;SDS011;13497;48.322;16.204;2023-08-24T10:44:23;3.97;;;3.67;;
25639;SDS011;13497;48.322;16.204;2023-08-24T10:47:20;3.80;;;3.50;;
25639;SDS011;13497;48.322;16.204;2023-08-24T10:54:46;4.30;;;3.90;;
25639;SDS011;13497;48.322;16.204;2023-08-24T11:02:51;3.70;;;3.40;;
25639;SDS011;13497;48.322;16.204;2023-08-24T11:05:20;4.43;;;3.75;;
25639;SDS011;13497;48.322;16.204;2023-08-24T11:07:50;4.50;;;3.70;;
25639;SDS011;13497;48.322;16.204;2023-08-24T11:10:18;4.28;;;3.63;;
25639;SDS011;13497;48.322;16.204;2023-08-24T11:20:49;4.25;;;3.53;;
25639;SDS011;13497;48.322;16.204;2023-08-24T11:23:18;4.60;;;3.80;;
25639;SDS011;13497;48.322;16.204;2023-08-24T11:25:45;4.18;;;3.60;;
25639;SDS011;13497;48.322;16.204;2023-08-24T11:28:16;4.57;;;3.70;;
25639;SDS011;13497;48.322;16.204;2023-08-24T11:30:43;3.67;;;3.38;;
25639;SDS011;13497;48.322;16.204;2023-08-24T11:33:09;4.47;;;3.47;;
25639;SDS011;13497;48.322;16.204;2023-08-24T11:35:38;6.68;;;3.15;;
25639;SDS011;13497;48.322;16.204;2023-08-24T11:38:06;4.18;;;3.78;;
25639;SDS011;13497;48.322;16.204;2023-08-24T11:40:33;4.32;;;3.92;;
25639;SDS011;13497;48.322;16.204;2023-08-24T11:42:58;3.78;;;3.38;;
25639;SDS011;13497;48.322;16.204;2023-08-24T11:45:29;6.93;;;3.58;;
25639;SDS011;13497;48.322;16.204;2023-08-24T11:47:57;3.65;;;3.35;;
25639;SDS011;13497;48.322;16.204;2023-08-24T11:50:24;3.72;;;3.42;;
25639;SDS011;13497;48.322;16.204;2023-08-24T11:52:50;3.72;;;3.13;;
25639;SDS011;13497;48.322;16.204;2023-08-24T11:55:17;3.95;;;3.28;;
25639;SDS011;13497;48.322;16.204;2023-08-24T11:57:43;3.63;;;3.25;;
25639;SDS011;13497;48.322;16.204;2023-08-24T12:00:09;3.90;;;3.50;;
25639;SDS011;13497;48.322;16.204;2023-08-24T12:02:38;3.35;;;3.05;;
25639;SDS011;13497;48.322;16.204;2023-08-24T12:05:06;4.13;;;3.38;;
25639;SDS011;13497;48.322;16.204;2023-08-24T12:07:32;3.60;;;3.30;;
25639;SDS011;13497;48.322;16.204;2023-08-24T12:10:02;3.65;;;3.35;;
25639;SDS011;13497;48.322;16.204;2023-08-24T12:12:28;4.07;;;3.38;;
25639;SDS011;13497;48.322;16.204;2023-08-24T12:14:54;3.55;;;3.25;;
25639;SDS011;13497;48.322;16.204;2023-08-24T12:17:20;3.58;;;3.28;;
25639;SDS011;13497;48.322;16.204;2023-08-24T12:19:56;4.00;;;3.60;;
25639;SDS011;13497;48.322;16.204;2023-08-24T12:22:26;4.25;;;3.80;;
25639;SDS011;13497;48.322;16.204;2023-08-24T12:24:54;5.22;;;3.55;;
25639;SDS011;13497;48.322;16.204;2023-08-24T12:27:20;3.13;;;2.90;;
25639;SDS011;13497;48.322;16.204;2023-08-24T12:29:51;3.40;;;3.10;;
25639;SDS011;13497;48.322;16.204;2023-08-24T12:32:16;3.28;;;2.97;;
25639;SDS011;13497;48.322;16.204;2023-08-24T12:34:45;3.35;;;3.05;;
25639;SDS011;13497;48.322;16.204;2023-08-24T12:37:11;7.03;;;3.15;;
25639;SDS011;13497;48.322;16.204;2023-08-24T12:39:38;3.33;;;3.03;;
25639;SDS011;13497;48.322;16.204;2023-08-24T12:42:04;3.83;;;3.40;;
25639;SDS011;13497;48.322;16.204;2023-08-24T12:44:31;3.60;;;3.30;;
25639;SDS011;13497;48.322;16.204;2023-08-24T12:46:57;5.20;;;3.50;;
25639;SDS011;13497;48.322;16.204;2023-08-24T12:49:23;4.43;;;3.05;;
25639;SDS011;13497;48.322;16.204;2023-08-24T12:51:49;3.75;;;3.30;;
25639;SDS011;13497;48.322;16.204;2023-08-24T12:54:15;3.75;;;3.40;;
25639;SDS011;13497;48.322;16.204;2023-08-24T12:56:41;3.38;;;3.03;;
25639;SDS011;13497;48.322;16.204;2023-08-24T12:59:07;3.08;;;2.75;;
25639;SDS011;13497;48.322;16.204;2023-08-24T13:01:33;4.03;;;2.95;;
25639;SDS011;13497;48.322;16.204;2023-08-24T13:03:58;8.57;;;3.58;;
25639;SDS011;13497;48.322;16.204;2023-08-24T13:06:24;3.28;;;3.08;;
25639;SDS011;13497;48.322;16.204;2023-08-24T13:08:52;6.38;;;3.22;;
25639;SDS011;13497;48.322;16.204;2023-08-24T13:11:18;3.95;;;2.92;;
25639;SDS011;13497;48.322;16.204;2023-08-24T13:13:43;3.08;;;2.80;;
25639;SDS011;13497;48.322;16.204;2023-08-24T13:16:10;3.20;;;2.92;;
25639;SDS011;13497;48.322;16.204;2023-08-24T13:18:36;3.53;;;3.10;;
25639;SDS011;13497;48.322;16.204;2023-08-24T13:21:02;4.18;;;2.75;;
25639;SDS011;13497;48.322;16.204;2023-08-24T13:23:28;3.67;;;3.38;;
25639;SDS011;13497;48.322;16.204;2023-08-24T13:25:53;4.70;;;3.22;;
25639;SDS011;13497;48.322;16.204;2023-08-24T13:28:21;4.97;;;2.85;;
25639;SDS011;13497;48.322;16.204;2023-08-24T13:30:46;2.95;;;2.67;;
25639;SDS011;13497;48.322;16.204;2023-08-24T13:33:13;4.35;;;2.47;;
25639;SDS011;13497;48.322;16.204;2023-08-24T13:35:40;3.15;;;2.85;;
25639;SDS011;13497;48.322;16.204;2023-08-24T13:38:05;3.08;;;2.80;;
25639;SDS011;13497;48.322;16.204;2023-08-24T13:40:32;3.13;;;2.85;;
25639;SDS011;13497;48.322;16.204;2023-08-24T13:42:57;3.35;;;3.05;;
25639;SDS011;13497;48.322;16.204;2023-08-24T13:45:23;3.30;;;3.10;;
25639;SDS011;13497;48.322;16.204;2023-08-24T13:47:49;4.05;;;3.13;;
25639;SDS011;13497;48.322;16.204;2023-08-24T13:50:14;4.10;;;2.90;;
25639;SDS011;13497;48.322;16.204;2023-08-24T13:52:40;6.60;;;2.65;;
25639;SDS011;13497;48.322;16.204;2023-08-24T13:55:06;2.90;;;2.70;;
25639;SDS011;13497;48.322;16.204;2023-08-24T13:57:32;2.85;;;2.65;;
25639;SDS011;13497;48.322;16.204;2023-08-24T13:59:57;5.43;;;3.00;;
25639;SDS011;13497;48.322;16.204;2023-08-24T14:02:25;2.70;;;2.50;;
25639;SDS011;13497;48.322;16.204;2023-08-24T14:04:50;3.67;;;2.97;;
25639;SDS011;13497;48.322;16.204;2023-08-24T14:07:16;2.95;;;2.65;;
25639;SDS011;13497;48.322;16.204;2023-08-24T14:09:42;3.30;;;2.70;;
25639;SDS011;13497;48.322;16.204;2023-08-24T14:12:07;2.92;;;2.72;;
25639;SDS011;13497;48.322;16.204;2023-08-24T14:14:33;3.92;;;2.95;;
25639;SDS011;13497;48.322;16.204;2023-08-24T14:16:58;3.72;;;2.90;;
25639;SDS011;13497;48.322;16.204;2023-08-24T14:19:24;3.30;;;3.00;;
25639;SDS011;13497;48.322;16.204;2023-08-24T14:21:51;3.72;;;2.60;;
25639;SDS011;13497;48.322;16.204;2023-08-24T14:24:17;2.72;;;2.47;;
25639;SDS011;13497;48.322;16.204;2023-08-24T14:26:44;3.05;;;2.78;;
25639;SDS011;13497;48.322;16.204;2023-08-24T14:29:10;3.28;;;2.90;;
25639;SDS011;13497;48.322;16.204;2023-08-24T14:31:37;2.80;;;2.58;;
25639;SDS011;13497;48.322;16.204;2023-08-24T14:34:02;3.28;;;2.40;;
25639;SDS011;13497;48.322;16.204;2023-08-24T14:36:28;3.92;;;3.17;;
25639;SDS011;13497;48.322;16.204;2023-08-24T14:38:54;2.88;;;2.58;;
25639;SDS011;13497;48.322;16.204;2023-08-24T14:41:21;3.22;;;2.75;;
25639;SDS011;13497;48.322;16.204;2023-08-24T14:43:46;3.20;;;2.55;;
25639;SDS011;13497;48.322;16.204;2023-08-24T14:46:13;3.00;;;2.80;;
25639;SDS011;13497;48.322;16.204;2023-08-24T14:48:39;3.65;;;2.70;;
25639;SDS011;13497;48.322;16.204;2023-08-24T14:51:05;3.15;;;2.83;;
25639;SDS011;13497;48.322;16.204;2023-08-24T14:53:31;3.33;;;3.00;;
25639;SDS011;13497;48.322;16.204;2023-08-24T14:55:57;5.75;;;3.00;;
25639;SDS011;13497;48.322;16.204;2023-08-24T14:58:24;4.15;;;3.60;;
25639;SDS011;13497;48.322;16.204;2023-08-24T15:00:51;3.35;;;3.05;;
25639;SDS011;13497;48.322;16.204;2023-08-24T15:03:19;4.88;;;3.38;;
25639;SDS011;13497;48.322;16.204;2023-08-24T15:05:55;3.20;;;3.00;;
25639;SDS011;13497;48.322;16.204;2023-08-24T15:08:22;6.45;;;3.30;;
25639;SDS011;13497;48.322;16.204;2023-08-24T15:10:49;3.75;;;3.05;;
25639;SDS011;13497;48.322;16.204;2023-08-24T15:13:14;7.60;;;2.88;;
25639;SDS011;13497;48.322;16.204;2023-08-24T15:15:40;3.78;;;3.25;;
25639;SDS011;13497;48.322;16.204;2023-08-24T15:18:06;3.40;;;3.10;;
25639;SDS011;13497;48.322;16.204;2023-08-24T15:20:31;5.72;;;3.45;;
25639;SDS011;13497;48.322;16.204;2023-08-24T15:22:58;3.55;;;3.22;;
25639;SDS011;13497;48.322;16.204;2023-08-24T15:25:24;3.47;;;3.17;;
25639;SDS011;13497;48.322;16.204;2023-08-24T15:27:51;4.13;;;2.97;;
25639;SDS011;13497;48.322;16.204;2023-08-24T15:30:16;3.83;;;3.42;;
25639;SDS011;13497;48.322;16.204;2023-08-24T15:32:42;4.10;;;3.72;;
25639;SDS011;13497;48.322;16.204;2023-08-24T15:35:08;5.55;;;3.65;;
25639;SDS011;13497;48.322;16.204;2023-08-24T15:37:34;3.47;;;3.17;;
25639;SDS011;13497;48.322;16.204;2023-08-24T15:40:00;5.10;;;3.28;;
25639;SDS011;13497;48.322;16.204;2023-08-24T15:42:26;4.97;;;3.22;;
25639;SDS011;13497;48.322;16.204;2023-08-24T15:44:52;3.42;;;3.10;;
25639;SDS011;13497;48.322;16.204;2023-08-24T15:47:18;3.45;;;3.15;;
25639;SDS011;13497;48.322;16.204;2023-08-24T15:49:44;3.85;;;3.47;;
25639;SDS011;13497;48.322;16.204;2023-08-24T15:52:09;3.58;;;3.28;;
25639;SDS011;13497;48.322;16.204;2023-08-24T15:54:35;3.40;;;3.05;;
25639;SDS011;13497;48.322;16.204;2023-08-24T15:57:01;4.53;;;2.90;;
25639;SDS011;13497;48.322;16.204;2023-08-24T15:59:26;3.60;;;3.13;;
25639;SDS011;13497;48.322;16.204;2023-08-24T16:01:52;3.38;;;3.08;;
25639;SDS011;13497;48.322;16.204;2023-08-24T16:04:19;3.22;;;2.92;;